Tropical Cyclones
[Index]
Main Index Home Page Stock Weather Photos Extreme Storms Discussion Storm News and Storm Chasing Reports Tropical Cyclones / Hurricanes / Typhoons Weather Data and Links Wild Fires / Bushfires Weather Observation Techniques Weather Picture Catalogue Tornado Pictures and Reports Stock Video Footage and DVDs for sale
Season 1998-1999 Tropical Cyclone DAVINA Track Map
Season 1998-1999 Summaries: [BoM-AU] [JTWC-AU] [JTWC-SIO] [JTWC-SPAC] [JTWC-SH]
<<- Previous TC | JTWC 1998-1999 Season | Next TC ->>

click for intensity scale information  Lat/long Grid: Show Hide

 Date Labels: Show Hide

Joint Typhoon Warning Centre Cyclone Data

Name: DAVINA

01 Mar 1999 06:00 UTC to 15 Mar 1999 06:00 UTC

    date/time    lat    long     hPa   cat  kts
1999-03-01 06    9.9    89.2                  25          
1999-03-01 12    9.8    89.3                  25          
1999-03-01 18    9.7    89.4                  30          
1999-03-02 00    9.6    89.6                  30          
1999-03-02 06    9.6    89.8                  30          
1999-03-02 12    9.6    90.0                  35          
1999-03-02 18    9.9    90.4                  35          
1999-03-03 00   10.2    90.5                  35          
1999-03-03 06   10.6    90.6            1     40          
1999-03-03 12   11.2    90.4            1     40          
1999-03-03 18   11.6    90.1            1     40          
1999-03-04 00   11.8    89.8            1     40          
1999-03-04 06   12.0    89.3            1     40          
1999-03-04 12   12.6    88.2            1     50          
1999-03-04 18   13.5    86.7            2     55          
1999-03-05 00   13.6    85.3            2     55          
1999-03-05 06   13.7    83.8            2     70          
1999-03-05 12   14.0    82.2            2     70          
1999-03-05 18   14.5    80.8            3     90          
1999-03-06 00   14.8    79.4            4    100          
1999-03-06 06   15.1    78.0            4    100          
1999-03-06 12   15.5    76.7            4    100          
1999-03-06 18   15.9    75.5            4    100          
1999-03-07 00   16.3    74.1            4    100          
1999-03-07 06   16.6    72.7            4    105          
1999-03-07 12   17.0    71.1            4    110          
1999-03-07 18   17.2    69.4            4    110          
1999-03-08 00   17.3    67.8            4    105          
1999-03-08 06   17.4    66.4            4    100          
1999-03-08 12   17.8    65.1            4    100          
1999-03-08 18   18.4    63.5            4    100          
1999-03-09 00   19.0    61.8            4    100          
1999-03-09 06   19.6    60.1            4    100          
1999-03-09 12   20.2    58.8            3     95          
1999-03-09 18   20.8    57.5            3     90          
1999-03-10 00   21.3    56.5            3     85          
1999-03-10 06   21.7    55.7            3     85          
1999-03-10 12   22.2    54.8            3     80          
1999-03-10 18   22.6    54.2            3     80          
1999-03-11 00   22.9    53.4            3     75          
1999-03-11 06   23.0    53.2            3     75          
1999-03-11 12   23.0    52.9            3     75          
1999-03-11 18   23.1    52.6            3     75          
1999-03-12 00   23.1    52.4            2     65          
1999-03-12 06   23.0    52.3            2     60          
1999-03-12 12   22.8    52.3            1     45          
1999-03-12 18   22.6    52.3                  35          
1999-03-13 00   22.4    52.4                  35          
1999-03-13 06   22.1    52.7                  35          
1999-03-13 12   22.1    52.9                  35          
1999-03-13 18   22.0    53.1                  35          
1999-03-14 00   21.9    52.9                  35          
1999-03-14 06   21.6    52.6                  35          
1999-03-14 12   21.4    52.4                  30          
1999-03-14 18   21.0    51.9                  30          
1999-03-15 00   20.8    51.4                  25          
1999-03-15 06   20.6    51.0                  20          
Winds are 1-min average.

Tropical cyclone tracks developed by Michael Bath using data from the Joint Typhoon Warning Centre Best Tracks and Google Maps.


[Australian Severe Weather index] [Copyright Notice] [Email Contacts] [Search This Site] [Privacy Policy]
Document: tropical_cyclone_davina.htm Updated: 18 September 2016